Terminal Aerodrome Forecast
Issued by NWS

Home | Current Version | Previous Version | Text Only | Print | Product List | Glossary Off
Versions: 1 2 3 4 5 6 7 8 9 10 11 12 13 14 15 16 17 18

304
FTUS42 KMHX 271756
TAFPGV
TAF
KPGV 271756Z 2718/2818 00000KT P6SM VCSH BKN050
      TEMPO 2719/2722 3SM TSRA BKN030CB
     FM280000 VRB04KT P6SM VCSH BKN050
     FM280600 00000KT 3SM BR SCT007 BKN040
     FM281300 17005KT P6SM BKN040
      AMD LTD TO CLD VIS AND WIND=

USA.gov is the U.S. government's official web portal to all federal, state and local government web resources and services.